Portada
METAR-TAF:

METAR-TAF

Aeropuertos :

Baréin, Bahréin

Aeropuerto Internacional de Baréin

latitud: 26-16N, longitud: 050-39E, altitud: 2 m

Observación

El informe se hizo hace 17 minutos, a las 04:30 UTC
Viento 13 kt del oeste-noroeste
Temperatura 38°C
Humedad 45%
Presión 996 hPa
Visibilidad 10 km o más
sin nubes por debajo de 1500 m y sin presencia de cumulonimbus.

METAR: OBBI 260430Z 30013KT CAVOK 38/24 Q0996 NOSIG

Hora: 07:47 (04:47 UTC)

Pronóstico

El informe se hizo hace 5 horas y 47 minutos, a las 23:00 UTC
Pronóstico válido del 26 a las 00 UTC al 27 a las 06 UTC
Viento 5 kt del oeste
Visibilidad: 8000 m
Evolucionando progresivamente
del 26 a las 06 UTC al 26 a las 08 UTC
Viento 15 kt del norte-noroeste
Evolucionando progresivamente
del 26 a las 21 UTC al 26 a las 23 UTC
Viento 5 kt del oeste

TAF: OBBI 252300Z 2600/2706 28005KT 8000 NSC BECMG 2606/2608 34015KT BECMG 2621/2623 26005KT

Observaciones y pronósticos meteorológicos de más de 4000 aeropuertos (mensajes METAR y TAF).

Los puntos amarillos y rojos representan las estaciones disponibles.

Ponga el ratón en el punto deseado para ver el nombre de la estación.

Haga clic para ver las observaciones y los pronósticos meteorológicos.

Para cambiar el mapa : haga clic en los botones verdes con una cruz de color negro para hacer un zoom, en el botón verde con un guión para alejar o en las flechas verdes para mapas adyacentes.


METAR-TAF: